Time;durP1;ratioP1;P1;durP2;ratioP2;P2;SDS_P1;SDS_P2;PMS_P1;PMS_P2;Temp;Humidity;BMP_temperature;BMP_pressure;BME280_temperature;BME280_humidity;BME280_pressure;Samples;Min_cycle;Max_cycle;Signal;HPM_P1;HPM_P2
2022/09/22 00:03:16;;;;;;;4.75;1.80;;;6.70;99.90;;;;;;7369906;32;20107;-59
2022/09/22 00:07:18;;;;;;;7.30;2.25;;;6.60;99.90;;;;;;7377947;32;20711;-59
2022/09/22 00:11:28;;;;;;;8.45;2.35;;;6.60;99.90;;;;;;7380045;31;20514;-59
2022/09/22 00:15:30;;;;;;;9.27;1.83;;;6.60;99.90;;;;;;7385864;31;20602;-60
2022/09/22 00:19:34;;;;;;;5.37;1.73;;;6.70;99.90;;;;;;7381150;32;20134;-59
2022/09/22 00:23:37;;;;;;;5.12;2.03;;;6.60;99.90;;;;;;7369947;32;20115;-59
2022/09/22 00:27:38;;;;;;;5.25;1.87;;;6.60;99.90;;;;;;7376869;32;20102;-59
2022/09/22 00:31:41;;;;;;;4.80;2.00;;;6.60;99.90;;;;;;7369817;32;20601;-59
2022/09/22 00:35:42;;;;;;;5.62;2.03;;;6.60;99.90;;;;;;7388013;32;20137;-59
2022/09/22 00:39:44;;;;;;;4.78;1.67;;;6.50;99.90;;;;;;7374788;32;20099;-60
2022/09/22 00:43:49;;;;;;;4.05;1.80;;;6.40;99.90;;;;;;7368682;32;20141;-59
2022/09/22 00:47:50;;;;;;;4.03;1.83;;;6.40;99.90;;;;;;7381833;32;20625;-59
2022/09/22 00:51:52;;;;;;;7.87;2.25;;;6.30;99.90;;;;;;7385877;32;20099;-60
2022/09/22 00:55:57;;;;;;;5.80;1.65;;;6.30;99.90;;;;;;7378401;32;20229;-59
2022/09/22 01:00:00;;;;;;;7.57;1.83;;;6.30;99.90;;;;;;7387008;32;20114;-61
2022/09/22 01:04:03;;;;;;;3.15;1.77;;;6.20;99.90;;;;;;7372884;32;20103;-60
2022/09/22 01:08:05;;;;;;;4.22;1.80;;;6.10;99.90;;;;;;7369273;32;20111;-59
2022/09/22 01:12:07;;;;;;;4.53;1.70;;;6.10;99.90;;;;;;7378381;32;20487;-60
2022/09/22 01:16:17;;;;;;;2.87;1.73;;;6.10;99.90;;;;;;7365149;32;20103;-60
2022/09/22 01:20:38;;;;;;;5.55;2.00;;;6.00;99.90;;;;;;7382928;32;20107;-60
2022/09/22 01:25:04;;;;;;;3.87;1.52;;;6.00;99.90;;;;;;7386577;32;20125;-59
2022/09/22 01:29:24;;;;;;;2.83;1.85;;;6.00;99.90;;;;;;7369158;32;20094;-60
2022/09/22 01:33:50;;;;;;;5.80;2.00;;;5.90;99.90;;;;;;7361610;32;20156;-61
2022/09/22 01:38:35;;;;;;;3.78;1.70;;;5.90;99.90;;;;;;7384694;32;20475;-61
2022/09/22 01:43:04;;;;;;;2.83;1.75;;;5.90;99.90;;;;;;7369511;32;20556;-61
2022/09/22 01:47:39;;;;;;;9.88;1.87;;;5.90;99.90;;;;;;7365687;32;20660;-60
2022/09/22 01:51:52;;;;;;;3.17;1.40;;;5.80;99.90;;;;;;7364656;32;20725;-62
2022/09/22 01:55:58;;;;;;;5.07;1.58;;;5.80;99.90;;;;;;7378194;31;20099;-62
2022/09/22 02:00:07;;;;;;;4.47;2.20;;;5.80;99.90;;;;;;7373189;32;20130;-60
2022/09/22 02:04:18;;;;;;;5.87;1.67;;;5.70;99.90;;;;;;7371354;32;20100;-60
2022/09/22 02:08:34;;;;;;;3.67;1.67;;;5.70;99.90;;;;;;7374603;32;20190;-60
2022/09/22 02:12:37;;;;;;;3.53;1.60;;;5.70;99.90;;;;;;7381494;32;20182;-60
2022/09/22 02:16:38;;;;;;;4.57;1.33;;;5.60;99.90;;;;;;7364913;32;20221;-60
2022/09/22 02:20:40;;;;;;;3.45;1.73;;;5.60;99.90;;;;;;7366455;32;20178;-60
2022/09/22 02:24:44;;;;;;;6.18;1.70;;;5.60;99.90;;;;;;7375138;32;20455;-60
2022/09/22 02:28:46;;;;;;;4.05;1.90;;;5.60;99.90;;;;;;7374934;32;20106;-60
2022/09/22 02:32:51;;;;;;;5.93;2.08;;;5.50;99.90;;;;;;7371264;32;20107;-60
2022/09/22 02:37:24;;;;;;;8.75;1.50;;;5.50;99.90;;;;;;7369640;32;20125;-60
2022/09/22 02:41:46;;;;;;;4.53;1.75;;;5.40;99.90;;;;;;7387923;32;20125;-61
2022/09/22 02:46:18;;;;;;;3.08;1.67;;;5.50;99.90;;;;;;7381554;32;20201;-60
2022/09/22 02:50:23;;;;;;;4.93;1.45;;;5.40;99.90;;;;;;7376070;32;20166;-60
2022/09/22 02:54:24;;;;;;;4.50;1.60;;;5.40;99.90;;;;;;7390591;32;20111;-60
2022/09/22 02:58:26;;;;;;;7.97;1.80;;;5.30;99.90;;;;;;7367735;32;20102;-60
2022/09/22 03:02:28;;;;;;;2.62;1.62;;;5.40;99.90;;;;;;7369525;32;20494;-60
2022/09/22 03:06:29;;;;;;;3.95;1.80;;;5.30;99.90;;;;;;7375747;32;20111;-60
2022/09/22 03:10:31;;;;;;;4.10;1.67;;;5.40;99.90;;;;;;7368192;32;20273;-60
2022/09/22 03:14:33;;;;;;;4.20;1.77;;;5.20;99.90;;;;;;7381764;32;20185;-61
2022/09/22 03:18:35;;;;;;;4.35;1.98;;;5.20;99.90;;;;;;7376048;32;20488;-59
2022/09/22 03:22:38;;;;;;;5.45;1.87;;;5.20;99.90;;;;;;7375763;32;20098;-59
2022/09/22 03:26:39;;;;;;;6.60;1.80;;;5.20;99.90;;;;;;7367457;32;20114;-59
2022/09/22 03:30:41;;;;;;;7.40;1.90;;;5.20;99.90;;;;;;7370976;32;20228;-61
2022/09/22 03:34:43;;;;;;;6.00;1.75;;;5.20;99.90;;;;;;7363676;32;20087;-60
2022/09/22 03:38:44;;;;;;;3.92;1.75;;;5.20;99.90;;;;;;7372149;32;20526;-61
2022/09/22 03:42:46;;;;;;;6.80;1.60;;;5.20;99.90;;;;;;7385136;32;20111;-59
2022/09/22 03:46:48;;;;;;;4.12;1.60;;;5.20;99.90;;;;;;7360574;32;20507;-59
2022/09/22 03:50:49;;;;;;;7.70;1.67;;;5.10;99.90;;;;;;7363955;32;20194;-59
2022/09/22 03:54:53;;;;;;;3.40;1.85;;;5.10;99.90;;;;;;7368622;32;20233;-61
2022/09/22 03:58:55;;;;;;;2.53;1.80;;;5.10;99.90;;;;;;7362499;32;20129;-60
2022/09/22 04:02:57;;;;;;;6.35;2.00;;;5.10;99.90;;;;;;7383810;32;20133;-60
2022/09/22 04:06:59;;;;;;;24.63;15.77;;;5.10;99.90;;;;;;7380426;32;20234;-60
2022/09/22 04:11:07;;;;;;;19.45;14.55;;;5.10;99.90;;;;;;7376637;32;20592;-59
2022/09/22 04:15:09;;;;;;;18.30;13.05;;;5.10;99.90;;;;;;7376244;32;20099;-60
2022/09/22 04:19:12;;;;;;;15.15;11.10;;;5.10;99.90;;;;;;7376898;32;20220;-62
2022/09/22 04:23:16;;;;;;;20.58;14.82;;;5.10;99.90;;;;;;7371866;32;20134;-60
2022/09/22 04:27:17;;;;;;;29.70;22.85;;;5.00;99.90;;;;;;7369266;31;20178;-59
2022/09/22 04:31:21;;;;;;;27.87;18.48;;;5.00;99.90;;;;;;7381498;32;20223;-61
2022/09/22 04:35:23;;;;;;;18.87;12.27;;;5.00;99.90;;;;;;7377964;32;20126;-60
2022/09/22 04:39:27;;;;;;;26.50;19.98;;;5.00;99.90;;;;;;7368721;32;20524;-60
2022/09/22 04:43:29;;;;;;;28.75;21.12;;;5.00;99.90;;;;;;7374627;32;20133;-61
2022/09/22 04:47:30;;;;;;;16.33;11.10;;;5.00;99.90;;;;;;7381414;32;20537;-59
2022/09/22 04:51:32;;;;;;;13.57;9.93;;;4.90;99.90;;;;;;7373525;32;20098;-61
2022/09/22 04:55:34;;;;;;;9.63;6.30;;;4.90;99.90;;;;;;7385629;32;20198;-60
2022/09/22 04:59:35;;;;;;;9.80;5.82;;;4.90;99.90;;;;;;7368087;32;20122;-60
2022/09/22 05:03:37;;;;;;;15.55;7.20;;;4.90;99.90;;;;;;7373196;32;20194;-59
2022/09/22 05:07:45;;;;;;;13.15;7.80;;;4.80;99.90;;;;;;7380508;32;20124;-60
2022/09/22 05:11:49;;;;;;;6.78;4.35;;;4.80;99.90;;;;;;7373605;32;20129;-62
2022/09/22 05:15:51;;;;;;;8.88;4.22;;;4.80;99.90;;;;;;7375235;32;20125;-61
2022/09/22 05:19:54;;;;;;;7.90;5.07;;;4.80;99.90;;;;;;7368023;32;20134;-60
2022/09/22 05:23:56;;;;;;;13.00;7.32;;;4.80;99.90;;;;;;7368331;32;20103;-63
2022/09/22 05:27:59;;;;;;;12.07;8.07;;;4.80;99.90;;;;;;7355065;32;20127;-63
2022/09/22 05:32:01;;;;;;;12.98;6.75;;;4.90;99.90;;;;;;7367077;32;20206;-63
2022/09/22 05:36:03;;;;;;;13.88;9.75;;;4.90;99.90;;;;;;7370058;32;20125;-63
2022/09/22 05:40:05;;;;;;;15.57;8.73;;;4.90;99.90;;;;;;7371143;32;20549;-63
2022/09/22 05:44:07;;;;;;;27.83;17.05;;;4.80;99.90;;;;;;7378020;31;20203;-63
2022/09/22 05:48:09;;;;;;;33.72;21.87;;;4.80;99.90;;;;;;7372306;32;20103;-63
2022/09/22 05:52:11;;;;;;;34.65;20.20;;;4.80;99.90;;;;;;7373993;32;20194;-64
2022/09/22 05:56:12;;;;;;;21.90;14.15;;;4.80;99.90;;;;;;7380822;32;20159;-62
2022/09/22 06:00:14;;;;;;;16.37;10.30;;;4.90;99.90;;;;;;7367792;32;20698;-63
2022/09/22 06:04:16;;;;;;;10.63;6.40;;;4.90;99.90;;;;;;7377531;32;20102;-63
2022/09/22 06:08:17;;;;;;;8.55;3.37;;;4.90;99.90;;;;;;7379279;32;20130;-63
2022/09/22 06:12:19;;;;;;;5.70;2.90;;;5.00;99.90;;;;;;7365148;32;20091;-62
2022/09/22 06:16:21;;;;;;;5.68;2.47;;;5.10;99.90;;;;;;7369450;32;20234;-64
2022/09/22 06:20:22;;;;;;;7.22;3.72;;;5.20;99.90;;;;;;7371108;32;20134;-63
2022/09/22 06:24:24;;;;;;;5.28;2.62;;;5.30;99.90;;;;;;7379743;32;20099;-63
2022/09/22 06:28:26;;;;;;;8.52;2.37;;;5.40;99.90;;;;;;7366390;32;20099;-63
2022/09/22 06:32:27;;;;;;;3.87;2.00;;;5.40;99.90;;;;;;7369449;32;20134;-63
2022/09/22 06:36:30;;;;;;;4.82;2.25;;;5.50;99.90;;;;;;7374119;32;20486;-64
2022/09/22 06:40:36;;;;;;;5.30;2.12;;;5.60;99.90;;;;;;7367838;32;20182;-64
2022/09/22 06:44:38;;;;;;;10.13;2.20;;;5.80;99.90;;;;;;7376317;32;20106;-64
2022/09/22 06:48:40;;;;;;;4.82;2.17;;;5.90;99.90;;;;;;7369566;32;20122;-63
2022/09/22 06:52:42;;;;;;;5.40;2.35;;;6.00;99.90;;;;;;7374441;32;20197;-65
2022/09/22 06:56:44;;;;;;;4.57;2.08;;;6.10;99.90;;;;;;7364658;32;20594;-64
2022/09/22 07:00:46;;;;;;;5.95;2.28;;;6.30;99.90;;;;;;7365297;32;20450;-64
2022/09/22 07:04:49;;;;;;;3.78;2.10;;;6.40;99.90;;;;;;7364900;32;20099;-63
2022/09/22 07:08:51;;;;;;;4.97;2.60;;;6.60;99.90;;;;;;7378000;32;20118;-63
2022/09/22 07:12:53;;;;;;;6.78;2.42;;;6.80;99.90;;;;;;7377727;32;20099;-65
2022/09/22 07:16:54;;;;;;;7.20;2.50;;;7.00;99.90;;;;;;7376691;32;20103;-63
2022/09/22 07:21:04;;;;;;;4.57;2.55;;;7.20;99.90;;;;;;7374086;32;20496;-63
2022/09/22 07:25:07;;;;;;;4.57;2.35;;;7.60;99.90;;;;;;7367228;32;20141;-63
2022/09/22 07:29:12;;;;;;;6.20;2.78;;;7.80;99.90;;;;;;7370171;32;20103;-63
2022/09/22 07:33:18;;;;;;;4.93;2.45;;;8.00;99.90;;;;;;7377233;32;22066;-63
2022/09/22 07:37:20;;;;;;;8.18;1.92;;;8.20;99.90;;;;;;7384146;32;20705;-63
2022/09/22 07:41:23;;;;;;;3.35;1.62;;;8.40;99.90;;;;;;7379679;32;20198;-63
2022/09/22 07:45:24;;;;;;;4.62;2.08;;;8.60;99.90;;;;;;7380323;32;20257;-63
2022/09/22 07:49:26;;;;;;;3.45;2.17;;;8.80;99.90;;;;;;7383793;32;20480;-62
2022/09/22 07:53:28;;;;;;;3.35;1.60;;;8.90;99.90;;;;;;7388008;32;20115;-63
2022/09/22 07:57:30;;;;;;;4.53;1.85;;;9.10;99.90;;;;;;7380185;32;20137;-63
2022/09/22 08:01:33;;;;;;;2.72;1.40;;;9.30;99.90;;;;;;7375249;31;20228;-63
2022/09/22 08:05:35;;;;;;;6.37;1.45;;;9.50;99.90;;;;;;7372219;32;20538;-62
2022/09/22 08:09:36;;;;;;;5.57;1.65;;;9.70;99.90;;;;;;7373432;32;20099;-63
2022/09/22 08:13:41;;;;;;;4.45;1.30;;;9.90;99.90;;;;;;7366831;32;20125;-62
2022/09/22 08:17:43;;;;;;;2.62;1.40;;;10.20;99.90;;;;;;7372017;32;20194;-63
2022/09/22 08:21:46;;;;;;;3.42;1.27;;;10.40;99.90;;;;;;7377401;32;20099;-62
2022/09/22 08:25:50;;;;;;;2.65;1.20;;;10.90;99.90;;;;;;7376560;32;20130;-63
2022/09/22 08:29:52;;;;;;;4.45;1.45;;;11.30;99.90;;;;;;7384549;32;20211;-65
2022/09/22 08:33:54;;;;;;;1.98;1.10;;;11.60;99.90;;;;;;7375030;32;20197;-63
2022/09/22 08:37:56;;;;;;;3.10;1.30;;;11.90;99.90;;;;;;7390725;32;20107;-62
2022/09/22 08:42:33;;;;;;;3.17;1.33;;;12.00;99.90;;;;;;7376645;32;20516;-63
2022/09/22 08:46:42;;;;;;;2.47;1.10;;;12.10;99.90;;;;;;7301826;32;20241;-63
2022/09/22 08:55:23;;;;;;;5.57;1.50;;;12.60;99.90;;;;;;7381290;32;20179;-63
2022/09/22 08:59:44;;;;;;;3.30;1.23;;;12.70;99.90;;;;;;7379255;32;20193;-63
2022/09/22 09:04:00;;;;;;;2.67;1.12;;;13.20;99.90;;;;;;7375590;32;20121;-64
2022/09/22 09:08:13;;;;;;;2.15;1.08;;;13.50;99.90;;;;;;7371309;32;20659;-63
2022/09/22 09:12:27;;;;;;;2.08;1.00;;;13.50;99.90;;;;;;7372537;32;20096;-63
2022/09/22 09:17:13;;;;;;;3.62;1.37;;;13.60;99.90;;;;;;7375999;32;20213;-63
2022/09/22 09:21:14;;;;;;;4.30;1.15;;;13.80;99.90;;;;;;7366855;32;20119;-64
2022/09/22 09:25:21;;;;;;;2.70;1.20;;;14.10;99.90;;;;;;7368688;32;20249;-64
2022/09/22 09:29:32;;;;;;;3.42;1.30;;;14.70;99.90;;;;;;7371635;32;20216;-64
2022/09/22 09:33:57;;;;;;;1.80;1.08;;;15.80;99.90;;;;;;7376592;32;20228;-65
2022/09/22 09:38:00;;;;;;;2.08;1.08;;;16.80;99.90;;;;;;7373829;32;20103;-64
2022/09/22 09:42:17;;;;;;;1.73;0.85;;;18.10;99.90;;;;;;7372542;32;20569;-64
2022/09/22 09:46:23;;;;;;;1.45;0.70;;;19.50;99.90;;;;;;7371025;32;20496;-63
2022/09/22 09:50:30;;;;;;;2.83;0.70;;;20.40;99.90;;;;;;7378897;32;20115;-64
2022/09/22 09:54:32;;;;;;;3.45;0.73;;;21.30;99.90;;;;;;7375687;32;20325;-64
2022/09/22 10:03:22;;;;;;;1.37;0.80;;;22.50;93.00;;;;;;7361568;32;20125;-64
2022/09/22 10:07:27;;;;;;;1.90;0.70;;;22.80;94.30;;;;;;7380133;31;20115;-64
2022/09/22 10:11:30;;;;;;;3.85;0.80;;;23.40;90.00;;;;;;7371942;32;20229;-64
2022/09/22 10:15:38;;;;;;;2.65;0.73;;;23.10;89.30;;;;;;7368691;32;20244;-63
2022/09/22 10:19:40;;;;;;;1.98;0.70;;;23.10;90.20;;;;;;7382443;32;20099;-63
2022/09/22 10:24:00;;;;;;;1.77;0.70;;;22.30;89.60;;;;;;7371034;32;20121;-63
2022/09/22 10:28:08;;;;;;;1.45;0.68;;;21.80;91.40;;;;;;7368309;32;20281;-64
2022/09/22 10:32:16;;;;;;;3.22;0.70;;;21.00;88.60;;;;;;7365153;32;20099;-63
2022/09/22 10:36:18;;;;;;;1.90;0.60;;;20.60;90.90;;;;;;7367610;32;20099;-63
2022/09/22 10:40:21;;;;;;;2.25;0.70;;;19.80;91.30;;;;;;7371136;32;20248;-63
2022/09/22 10:44:24;;;;;;;1.37;0.75;;;19.30;92.60;;;;;;7372640;31;20234;-63
2022/09/22 10:48:50;;;;;;;;;;;18.90;91.50;;;;;;7371928;32;20222;-63
2022/09/22 10:53:01;;;;;;;2.92;0.60;;;18.60;93.30;;;;;;7374926;32;20021;-64
2022/09/22 10:57:09;;;;;;;1.00;0.70;;;18.10;94.30;;;;;;7376316;32;20212;-63
2022/09/22 11:01:30;;;;;;;1.85;0.80;;;18.00;92.20;;;;;;7376081;32;20495;-63
2022/09/22 11:15:44;;;;;;;1.40;0.85;;;17.40;95.50;;;;;;7382650;32;20099;-65
2022/09/22 11:19:58;;;;;;;1.12;0.65;;;17.40;94.80;;;;;;7375231;32;20194;-64
2022/09/22 11:24:13;;;;;;;1.05;0.70;;;17.60;94.90;;;;;;7390619;32;20129;-63
2022/09/22 11:28:42;;;;;;;1.10;0.80;;;17.80;93.10;;;;;;7390672;32;20432;-64
2022/09/22 11:33:15;;;;;;;1.40;0.60;;;17.70;93.30;;;;;;7375295;32;20140;-65
2022/09/22 11:37:26;;;;;;;2.65;0.82;;;17.80;94.20;;;;;;7366010;32;20201;-64
2022/09/22 11:41:46;;;;;;;1.40;0.68;;;18.00;96.10;;;;;;7367896;32;20141;-63
2022/09/22 11:45:56;;;;;;;2.67;0.80;;;18.30;92.60;;;;;;7372255;32;20177;-63
2022/09/22 11:50:09;;;;;;;1.05;0.82;;;18.50;95.10;;;;;;7374461;32;20219;-63
2022/09/22 11:54:20;;;;;;;1.37;0.62;;;18.60;94.10;;;;;;7374014;32;20121;-65
2022/09/22 11:58:26;;;;;;;2.08;0.85;;;18.80;93.30;;;;;;7366838;32;20340;-64
2022/09/22 12:02:37;;;;;;;1.85;0.82;;;18.80;94.90;;;;;;7371179;32;20149;-63
2022/09/22 12:06:43;;;;;;;1.02;0.70;;;19.10;92.00;;;;;;7385558;32;20179;-63
2022/09/22 12:10:46;;;;;;;1.27;0.85;;;19.10;93.30;;;;;;7374358;32;20203;-62
2022/09/22 12:14:59;;;;;;;2.55;0.80;;;19.00;91.00;;;;;;7372910;32;20119;-63
2022/09/22 12:19:19;;;;;;;4.15;0.98;;;18.90;91.30;;;;;;7370791;32;20274;-62
2022/09/22 12:23:42;;;;;;;5.05;1.08;;;19.00;90.70;;;;;;7368323;32;20593;-63
2022/09/22 12:27:54;;;;;;;1.23;0.82;;;18.90;94.10;;;;;;7361308;32;20186;-63
2022/09/22 12:31:57;;;;;;;1.60;0.80;;;18.40;92.70;;;;;;7373034;32;20466;-63
2022/09/22 12:36:01;;;;;;;3.55;0.98;;;18.60;92.60;;;;;;7373438;32;20628;-63
2022/09/22 12:40:30;;;;;;;2.08;0.68;;;18.70;93.80;;;;;;7369738;32;20241;-63
2022/09/22 12:45:04;;;;;;;1.20;0.70;;;18.70;93.70;;;;;;7368233;32;20144;-57
2022/09/22 12:49:08;;;;;;;3.85;0.70;;;18.90;92.30;;;;;;7329891;32;20114;-65
2022/09/22 12:53:23;;;;;;;2.03;0.80;;;19.00;93.10;;;;;;7373309;32;20601;-64
2022/09/22 12:57:26;;;;;;;2.92;0.88;;;19.00;91.30;;;;;;7369714;32;20145;-59
2022/09/22 13:01:32;;;;;;;1.98;0.80;;;19.00;92.20;;;;;;7368790;31;20102;-60
2022/09/22 13:05:39;;;;;;;3.53;0.80;;;19.00;92.20;;;;;;7366837;32;20107;-58
2022/09/22 13:09:47;;;;;;;1.23;0.70;;;19.00;94.30;;;;;;7367540;32;20498;-60
2022/09/22 13:13:49;;;;;;;1.77;0.95;;;19.00;92.50;;;;;;7372334;32;20094;-60
2022/09/22 13:17:51;;;;;;;2.30;0.85;;;19.00;92.70;;;;;;7371663;32;20402;-59
2022/09/22 13:21:53;;;;;;;5.28;0.98;;;18.90;91.20;;;;;;7362565;32;20199;-59
2022/09/22 13:26:06;;;;;;;1.60;0.80;;;19.10;91.60;;;;;;7371192;32;20106;-59
2022/09/22 13:30:14;;;;;;;1.90;0.80;;;19.10;89.10;;;;;;7370085;32;20178;-59
2022/09/22 13:34:34;;;;;;;1.75;0.80;;;19.10;93.20;;;;;;7364138;32;20103;-59
2022/09/22 13:38:41;;;;;;;1.77;0.85;;;19.10;90.90;;;;;;7366890;32;20227;-60
2022/09/22 13:42:43;;;;;;;3.25;1.00;;;19.20;91.90;;;;;;7374730;32;20245;-60
2022/09/22 13:46:49;;;;;;;1.42;0.60;;;19.30;91.50;;;;;;7369873;32;20561;-59
2022/09/22 13:51:04;;;;;;;1.65;0.90;;;19.20;91.20;;;;;;7369930;32;20134;-59
2022/09/22 13:55:18;;;;;;;3.15;1.00;;;19.20;92.20;;;;;;7364329;32;20149;-60
2022/09/22 13:59:20;;;;;;;4.28;0.82;;;19.30;89.20;;;;;;7358942;32;20218;-60
2022/09/22 14:03:22;;;;;;;3.97;1.00;;;19.20;90.90;;;;;;7362527;31;20182;-65
2022/09/22 14:07:29;;;;;;;1.00;0.70;;;19.20;87.70;;;;;;7371466;32;20153;-65
2022/09/22 14:11:31;;;;;;;;;;;19.30;90.40;;;;;;7366697;32;20130;-65
2022/09/22 14:15:36;;;;;;;2.05;0.70;;;19.50;90.20;;;;;;7364878;32;20156;-64
2022/09/22 14:19:45;;;;;;;2.67;0.80;;;19.70;88.80;;;;;;7370271;32;20121;-65
2022/09/22 14:23:49;;;;;;;1.65;0.90;;;19.70;87.00;;;;;;7363327;32;20122;-64
2022/09/22 14:27:54;;;;;;;1.35;0.57;;;19.70;86.30;;;;;;7365045;32;20201;-64
2022/09/22 14:32:22;;;;;;;1.20;0.70;;;19.50;86.80;;;;;;7369707;32;20104;-63
2022/09/22 14:36:24;;;;;;;0.88;0.50;;;19.30;92.00;;;;;;7371600;32;20110;-64
2022/09/22 14:40:28;;;;;;;2.72;0.82;;;19.10;92.20;;;;;;7366191;32;20125;-64
2022/09/22 14:44:34;;;;;;;1.90;0.70;;;19.00;92.00;;;;;;7369241;32;20111;-64
2022/09/22 14:48:36;;;;;;;1.55;0.95;;;19.00;91.10;;;;;;7366854;32;20102;-64
2022/09/22 14:52:45;;;;;;;1.85;0.80;;;18.70;90.60;;;;;;7377721;32;20111;-65
2022/09/22 14:56:46;;;;;;;1.95;1.00;;;18.60;91.50;;;;;;7375047;32;20103;-64
2022/09/22 15:05:26;;;;;;;1.08;0.73;;;18.70;90.00;;;;;;7374415;32;20205;-65
2022/09/22 15:09:35;;;;;;;1.35;0.73;;;18.60;87.80;;;;;;7364605;32;20533;-62
2022/09/22 15:13:44;;;;;;;3.87;0.90;;;18.40;91.20;;;;;;7372180;32;20474;-62
2022/09/22 15:22:13;;;;;;;3.55;0.80;;;18.30;91.40;;;;;;7363536;32;20143;-64
2022/09/22 15:26:21;;;;;;;2.03;0.80;;;18.10;93.80;;;;;;7367547;32;20254;-63
2022/09/22 15:30:28;;;;;;;2.67;1.00;;;18.00;93.10;;;;;;7369279;32;20464;-63
2022/09/22 15:34:30;;;;;;;1.83;1.02;;;17.90;93.40;;;;;;7375196;32;20095;-62
2022/09/22 15:38:36;;;;;;;1.17;0.98;;;17.90;93.10;;;;;;7370994;32;20118;-63
2022/09/22 15:42:38;;;;;;;2.72;0.95;;;17.70;93.10;;;;;;7370450;32;20121;-64
2022/09/22 15:46:59;;;;;;;2.47;0.90;;;17.70;93.90;;;;;;7364447;32;20083;-64
2022/09/22 15:51:10;;;;;;;1.50;0.90;;;17.70;94.20;;;;;;7377484;32;20193;-64
2022/09/22 15:55:17;;;;;;;1.37;0.75;;;17.60;94.40;;;;;;7374510;32;20133;-64
2022/09/22 15:59:25;;;;;;;1.05;0.75;;;17.60;93.10;;;;;;7372792;32;20103;-63
2022/09/22 16:03:30;;;;;;;2.20;0.88;;;17.30;96.10;;;;;;7370336;31;20587;-63
2022/09/22 16:07:36;;;;;;;1.20;0.90;;;17.30;97.10;;;;;;7387503;31;20205;-64
2022/09/22 16:11:38;;;;;;;3.20;0.70;;;17.20;96.60;;;;;;7374006;32;20100;-63
2022/09/22 16:15:40;;;;;;;1.58;0.60;;;17.00;95.50;;;;;;7369348;32;20111;-63
2022/09/22 16:19:41;;;;;;;1.73;1.00;;;16.90;98.20;;;;;;7380800;32;20121;-63
2022/09/22 16:23:43;;;;;;;1.90;0.62;;;16.80;98.40;;;;;;7375904;32;20235;-63
2022/09/22 16:27:45;;;;;;;3.33;0.82;;;16.80;99.40;;;;;;7368957;32;20218;-63
2022/09/22 16:31:47;;;;;;;1.15;0.60;;;16.70;97.70;;;;;;7375580;32;20168;-63
2022/09/22 16:35:49;;;;;;;1.33;0.70;;;16.60;99.50;;;;;;7376267;32;20163;-63
2022/09/22 16:39:50;;;;;;;3.67;0.77;;;16.50;99.90;;;;;;7375225;32;20861;-62
2022/09/22 16:43:54;;;;;;;1.35;0.73;;;16.40;99.90;;;;;;7370376;32;20616;-62
2022/09/22 16:47:55;;;;;;;1.55;0.55;;;16.20;99.90;;;;;;7376568;32;20259;-62
2022/09/22 16:51:57;;;;;;;1.50;0.70;;;16.00;99.90;;;;;;7366691;32;20660;-63
2022/09/22 16:55:59;;;;;;;1.17;0.60;;;15.80;99.90;;;;;;7375263;32;20106;-62
2022/09/22 17:00:01;;;;;;;1.67;1.05;;;15.50;99.90;;;;;;7364943;32;20130;-64
2022/09/22 17:04:06;;;;;;;4.30;1.92;;;15.40;99.90;;;;;;7366894;32;20114;-63
2022/09/22 17:08:08;;;;;;;3.55;1.67;;;15.10;99.90;;;;;;7383377;32;20163;-63
2022/09/22 17:12:10;;;;;;;1.90;1.15;;;14.90;99.90;;;;;;7370859;32;20236;-63
2022/09/22 17:16:35;;;;;;;2.08;1.00;;;14.60;99.90;;;;;;7375332;32;20122;-65
2022/09/22 17:20:37;;;;;;;2.25;1.10;;;14.20;99.90;;;;;;7363466;32;20162;-62
2022/09/22 17:24:39;;;;;;;2.97;1.20;;;13.90;99.90;;;;;;7363059;32;20723;-62
2022/09/22 17:28:42;;;;;;;2.58;1.42;;;13.60;99.90;;;;;;7367051;32;20119;-62
2022/09/22 17:32:46;;;;;;;4.22;1.40;;;13.30;99.90;;;;;;7378554;32;20581;-62
2022/09/22 17:36:47;;;;;;;5.43;2.00;;;13.00;99.90;;;;;;7374035;31;20110;-63
2022/09/22 17:40:54;;;;;;;4.55;2.15;;;12.70;99.90;;;;;;7368402;32;20130;-64
2022/09/22 17:44:56;;;;;;;4.85;2.25;;;12.50;99.90;;;;;;7371438;32;20106;-61
2022/09/22 17:57:44;;;;;;;6.20;3.05;;;11.90;99.90;;;;;;7355547;32;20103;-61
2022/09/22 18:01:46;;;;;;;5.93;2.75;;;11.70;99.90;;;;;;7362893;32;20523;-60
2022/09/22 18:05:52;;;;;;;5.85;2.97;;;11.50;99.90;;;;;;7375533;32;20111;-61
2022/09/22 18:09:54;;;;;;;7.37;3.62;;;11.40;99.90;;;;;;7362811;32;20231;-60
2022/09/22 18:13:56;;;;;;;6.82;2.47;;;11.20;99.90;;;;;;7372220;32;20729;-60
2022/09/22 18:17:57;;;;;;;5.35;3.47;;;11.10;99.90;;;;;;7376366;32;20190;-60
2022/09/22 18:22:01;;;;;;;10.95;7.57;;;10.90;99.90;;;;;;7371311;32;20674;-60
2022/09/22 18:26:03;;;;;;;11.50;5.62;;;10.80;99.90;;;;;;7364247;32;20466;-60
2022/09/22 18:30:06;;;;;;;9.13;5.82;;;10.70;99.90;;;;;;7364592;32;20663;-60
2022/09/22 18:34:08;;;;;;;12.63;6.35;;;10.60;99.90;;;;;;7368326;32;20701;-60
2022/09/22 18:38:10;;;;;;;9.50;6.28;;;10.40;99.90;;;;;;7377453;32;20142;-60
2022/09/22 18:42:12;;;;;;;12.90;4.57;;;10.30;99.90;;;;;;7366936;32;20127;-60
2022/09/22 18:46:18;;;;;;;5.47;3.60;;;10.20;99.90;;;;;;7367877;32;20129;-60
2022/09/22 18:50:20;;;;;;;5.45;3.45;;;10.20;99.90;;;;;;7369751;32;20750;-61
2022/09/22 18:54:22;;;;;;;4.75;2.87;;;10.00;99.90;;;;;;7384829;32;20578;-60
2022/09/22 18:58:23;;;;;;;9.25;3.40;;;9.90;99.90;;;;;;7374047;32;20115;-61
2022/09/22 19:02:25;;;;;;;7.18;4.80;;;9.90;99.90;;;;;;7371976;32;20208;-62
2022/09/22 19:06:28;;;;;;;4.47;2.55;;;9.80;99.90;;;;;;7387056;32;20115;-62
2022/09/22 19:10:30;;;;;;;5.62;2.50;;;9.70;99.90;;;;;;7369631;32;20215;-61
2022/09/22 19:14:37;;;;;;;3.62;2.30;;;9.70;99.90;;;;;;7364644;32;20114;-63
2022/09/22 19:18:42;;;;;;;5.70;2.30;;;9.60;99.90;;;;;;7360719;32;20102;-64
2022/09/22 19:22:45;;;;;;;4.05;2.25;;;9.50;99.90;;;;;;7377240;32;20122;-61
2022/09/22 19:26:50;;;;;;;4.30;2.30;;;9.40;99.90;;;;;;7385902;32;20179;-62
2022/09/22 19:30:51;;;;;;;3.70;2.37;;;9.40;99.90;;;;;;7372728;32;20106;-63
2022/09/22 19:34:53;;;;;;;7.25;1.70;;;9.30;99.90;;;;;;7384395;32;20238;-61
2022/09/22 19:38:55;;;;;;;10.63;5.30;;;9.20;99.90;;;;;;7381815;32;20216;-61
2022/09/22 19:42:58;;;;;;;32.85;17.70;;;9.10;99.90;;;;;;7368103;32;20194;-61
2022/09/22 19:46:59;;;;;;;29.95;18.30;;;9.10;99.90;;;;;;7377980;32;20103;-62
2022/09/22 19:51:02;;;;;;;27.55;17.30;;;9.10;99.90;;;;;;7377548;32;20106;-62
2022/09/22 19:55:06;;;;;;;32.25;18.35;;;9.00;99.90;;;;;;7378737;32;20680;-60
2022/09/22 19:59:08;;;;;;;32.92;18.52;;;8.90;99.90;;;;;;7382266;32;20111;-59
2022/09/22 20:03:09;;;;;;;26.55;16.55;;;8.90;99.90;;;;;;7375730;32;20126;-61
2022/09/22 20:07:11;;;;;;;16.37;10.88;;;8.80;99.90;;;;;;7369781;32;20147;-62
2022/09/22 20:11:13;;;;;;;13.07;8.60;;;8.80;99.90;;;;;;7377654;32;20190;-62
2022/09/22 20:15:27;;;;;;;13.23;8.40;;;8.70;99.90;;;;;;7375407;32;20133;-61
2022/09/22 20:19:31;;;;;;;11.38;7.85;;;8.60;99.90;;;;;;7373659;32;20119;-61
2022/09/22 20:23:33;;;;;;;13.32;8.98;;;8.60;99.90;;;;;;7370489;32;20214;-62
2022/09/22 20:27:35;;;;;;;15.88;11.38;;;8.50;99.90;;;;;;7374929;32;20270;-62
2022/09/22 20:31:38;;;;;;;14.35;9.43;;;8.40;99.90;;;;;;7375109;32;20107;-62
2022/09/22 20:35:39;;;;;;;11.40;8.90;;;8.40;99.90;;;;;;7380380;32;20114;-62
2022/09/22 20:39:41;;;;;;;13.05;8.35;;;8.30;99.90;;;;;;7371733;32;20130;-63
2022/09/22 20:43:43;;;;;;;13.75;10.32;;;8.40;99.90;;;;;;7364304;32;20123;-63
2022/09/22 20:47:45;;;;;;;16.02;9.98;;;8.30;99.90;;;;;;7366166;32;20206;-61
2022/09/22 20:51:46;;;;;;;16.27;12.07;;;8.30;99.90;;;;;;7373669;32;20138;-62
2022/09/22 20:56:09;;;;;;;20.58;10.82;;;8.20;99.90;;;;;;7379308;32;20907;-61
2022/09/22 21:00:14;;;;;;;14.63;9.00;;;8.30;99.90;;;;;;7373930;32;20773;-61
2022/09/22 21:04:15;;;;;;;13.10;6.30;;;8.20;99.90;;;;;;7369531;32;20231;-61
2022/09/22 21:12:39;;;;;;;11.32;3.47;;;8.20;99.90;;;;;;7364530;32;20130;-61
2022/09/22 21:16:41;;;;;;;6.22;3.35;;;8.10;99.90;;;;;;7365850;32;20134;-61
2022/09/22 21:20:43;;;;;;;4.53;3.53;;;8.10;99.90;;;;;;7372795;32;20198;-61
2022/09/22 21:24:47;;;;;;;6.55;3.72;;;8.10;99.90;;;;;;7381724;32;20115;-61
2022/09/22 21:28:50;;;;;;;5.50;3.60;;;8.00;99.90;;;;;;7378625;32;20191;-62
2022/09/22 21:32:51;;;;;;;5.75;3.37;;;8.00;99.90;;;;;;7360781;32;20635;-61
2022/09/22 21:36:53;;;;;;;4.53;2.90;;;8.00;99.90;;;;;;7367989;32;20111;-61
2022/09/22 21:41:04;;;;;;;7.90;2.97;;;7.90;99.90;;;;;;7378730;32;20202;-60
2022/09/22 21:45:06;;;;;;;5.40;2.78;;;7.90;99.90;;;;;;7371414;32;20836;-61
2022/09/22 21:49:08;;;;;;;5.72;2.70;;;7.90;99.90;;;;;;7377300;32;20515;-61
2022/09/22 21:53:10;;;;;;;4.15;2.53;;;7.80;99.90;;;;;;7370029;32;20131;-60
2022/09/22 21:57:12;;;;;;;4.53;2.37;;;7.90;99.90;;;;;;7367921;32;20123;-61
2022/09/22 22:01:16;;;;;;;6.07;2.87;;;7.80;99.90;;;;;;7359342;32;20733;-60
2022/09/22 22:05:18;;;;;;;5.47;2.83;;;7.80;99.90;;;;;;7388645;31;20150;-61
2022/09/22 22:09:21;;;;;;;6.03;2.78;;;7.70;99.90;;;;;;7364877;32;20186;-61